Time;durP1;ratioP1;P1;durP2;ratioP2;P2;SDS_P1;SDS_P2;PMS_P1;PMS_P2;Temp;Humidity;BMP_temperature;BMP_pressure;BME280_temperature;BME280_humidity;BME280_pressure;Samples;Min_cycle;Max_cycle;Signal;HPM_P1;HPM_P2
2023/06/05 00:01:45;;;;;;;1.30;1.20;;;24.50;49.80;;;;;;5060259;28;20194;-44
2023/06/05 00:04:15;;;;;;;1.27;1.07;;;24.50;49.80;;;;;;5060812;28;20238;-45
2023/06/05 00:06:47;;;;;;;1.77;1.27;;;24.40;49.70;;;;;;5062337;28;20201;-44
2023/06/05 00:09:17;;;;;;;1.73;1.20;;;24.40;49.80;;;;;;5056098;28;20221;-44
2023/06/05 00:11:48;;;;;;;2.03;1.27;;;24.40;49.70;;;;;;5048419;28;20195;-44
2023/06/05 00:14:22;;;;;;;1.27;1.17;;;24.40;49.70;;;;;;5053063;28;20186;-44
2023/06/05 00:16:51;;;;;;;1.47;1.20;;;24.40;49.80;;;;;;5058072;28;20619;-44
2023/06/05 00:19:22;;;;;;;1.37;1.27;;;24.40;49.80;;;;;;5071922;28;20563;-44
2023/06/05 00:21:58;;;;;;;1.27;1.17;;;24.40;49.80;;;;;;5053341;28;20217;-44
2023/06/05 00:24:28;;;;;;;1.00;1.00;;;24.40;49.80;;;;;;5060410;28;20209;-44
2023/06/05 00:27:02;;;;;;;1.43;1.10;;;24.30;49.70;;;;;;5068569;28;20615;-44
2023/06/05 00:29:33;;;;;;;1.40;1.30;;;24.30;49.80;;;;;;5068604;28;20185;-44
2023/06/05 00:32:04;;;;;;;1.80;1.33;;;24.30;49.80;;;;;;5069891;28;20182;-44
2023/06/05 00:34:36;;;;;;;2.23;1.03;;;24.30;49.80;;;;;;5067355;28;20235;-44
2023/06/05 00:37:08;;;;;;;1.43;1.17;;;24.30;49.80;;;;;;5067826;28;20797;-44
2023/06/05 00:39:39;;;;;;;1.10;1.00;;;24.30;49.80;;;;;;5077027;28;20197;-44
2023/06/05 00:42:14;;;;;;;1.37;1.27;;;24.30;49.80;;;;;;5042053;28;20723;-44
2023/06/05 00:44:50;;;;;;;1.10;1.00;;;24.30;49.80;;;;;;5015761;28;20207;-43
2023/06/05 00:47:19;;;;;;;1.17;1.10;;;24.30;49.80;;;;;;5047988;28;20194;-44
2023/06/05 00:49:50;;;;;;;1.30;1.17;;;24.20;49.70;;;;;;5048728;28;20720;-44
2023/06/05 00:52:21;;;;;;;1.20;0.97;;;24.20;49.80;;;;;;5042698;28;20190;-45
2023/06/05 00:54:50;;;;;;;1.37;1.27;;;24.20;49.80;;;;;;5021029;28;20206;-44
2023/06/05 00:57:24;;;;;;;1.63;1.30;;;24.20;49.90;;;;;;5025704;28;20207;-44
2023/06/05 00:59:54;;;;;;;1.47;1.10;;;24.20;49.80;;;;;;5018278;28;20241;-44
2023/06/05 01:02:24;;;;;;;1.43;1.10;;;24.20;49.80;;;;;;5020919;28;20226;-44
2023/06/05 01:04:57;;;;;;;1.10;1.00;;;24.20;49.80;;;;;;5033964;28;20198;-44
2023/06/05 01:07:28;;;;;;;1.40;1.30;;;24.20;49.90;;;;;;5045508;28;20186;-44
2023/06/05 01:10:03;;;;;;;1.37;1.27;;;24.20;49.90;;;;;;5055505;28;20552;-44
2023/06/05 01:13:05;;;;;;;1.47;1.00;;;24.10;49.80;;;;;;5049175;28;20573;-44
2023/06/05 01:15:36;;;;;;;1.10;1.00;;;24.10;49.80;;;;;;5043454;28;20719;-44
2023/06/05 01:18:04;;;;;;;2.43;1.20;;;24.10;49.90;;;;;;5015304;28;20214;-44
2023/06/05 01:20:41;;;;;;;1.20;1.10;;;24.10;49.90;;;;;;5030214;28;20202;-45
2023/06/05 01:23:13;;;;;;;1.30;1.00;;;24.10;49.90;;;;;;5051310;28;20226;-45
2023/06/05 01:25:42;;;;;;;1.73;1.07;;;24.10;49.90;;;;;;5046401;28;20269;-44
2023/06/05 01:28:31;;;;;;;1.50;1.13;;;24.10;49.80;;;;;;5018605;28;20562;-44
2023/06/05 01:31:13;;;;;;;1.27;1.17;;;24.10;49.90;;;;;;5064874;28;20202;-44
2023/06/05 01:34:01;;;;;;;2.53;1.50;;;24.10;49.90;;;;;;5038375;28;20210;-44
2023/06/05 01:36:36;;;;;;;1.53;1.30;;;24.10;49.90;;;;;;5023137;28;20640;-44
2023/06/05 01:39:08;;;;;;;1.10;1.00;;;24.00;49.90;;;;;;5029779;28;20215;-45
2023/06/05 01:41:44;;;;;;;2.03;1.13;;;24.00;49.90;;;;;;5033314;28;20240;-44
2023/06/05 01:44:15;;;;;;;1.63;1.20;;;24.00;49.90;;;;;;5059786;28;20228;-44
2023/06/05 01:46:46;;;;;;;1.00;1.00;;;24.00;49.90;;;;;;5053369;28;20217;-44
2023/06/05 01:49:18;;;;;;;2.17;1.40;;;24.00;49.90;;;;;;5055684;28;20556;-44
2023/06/05 01:51:50;;;;;;;1.43;1.33;;;24.00;49.90;;;;;;5048566;28;20199;-44
2023/06/05 01:54:23;;;;;;;1.07;0.93;;;24.00;49.90;;;;;;5071068;28;20243;-44
2023/06/05 01:56:58;;;;;;;1.43;1.20;;;23.90;49.90;;;;;;5061073;28;20640;-44
2023/06/05 01:59:36;;;;;;;1.53;1.33;;;23.90;49.90;;;;;;5065974;28;20771;-45
2023/06/05 02:02:06;;;;;;;1.07;0.80;;;23.90;49.90;;;;;;5072439;28;20190;-44
2023/06/05 02:04:37;;;;;;;1.23;1.13;;;23.90;50.00;;;;;;5060649;28;20229;-44
2023/06/05 02:07:09;;;;;;;1.10;1.00;;;23.90;50.00;;;;;;5050322;28;20202;-44
2023/06/05 02:09:38;;;;;;;1.10;1.00;;;23.80;50.00;;;;;;5052857;28;20216;-44
2023/06/05 02:12:14;;;;;;;2.43;1.30;;;23.80;50.00;;;;;;5069552;28;20209;-44
2023/06/05 02:14:56;;;;;;;1.40;1.30;;;23.80;50.00;;;;;;5056013;28;20221;-44
2023/06/05 02:17:26;;;;;;;2.40;1.20;;;23.80;50.10;;;;;;5068350;28;20218;-44
2023/06/05 02:19:54;;;;;;;1.63;1.00;;;23.80;50.10;;;;;;5052965;28;20194;-44
2023/06/05 02:22:25;;;;;;;1.30;1.20;;;23.80;50.10;;;;;;5063379;28;20233;-44
2023/06/05 02:24:53;;;;;;;2.13;1.27;;;23.80;50.10;;;;;;5072386;28;20776;-44
2023/06/05 02:27:24;;;;;;;1.27;1.13;;;23.70;50.10;;;;;;5054015;28;20206;-45
2023/06/05 02:29:53;;;;;;;1.73;1.17;;;23.70;50.10;;;;;;5056406;28;20624;-44
2023/06/05 02:32:25;;;;;;;1.57;1.37;;;23.70;50.10;;;;;;5060955;28;20205;-44
2023/06/05 02:34:57;;;;;;;1.03;0.93;;;23.70;50.20;;;;;;5063668;28;20252;-44
2023/06/05 02:37:28;;;;;;;2.80;1.30;;;23.70;50.10;;;;;;5061603;28;20201;-43
2023/06/05 02:39:56;;;;;;;1.80;1.30;;;23.70;50.10;;;;;;5045928;28;20200;-45
2023/06/05 02:42:26;;;;;;;1.17;1.00;;;23.70;50.10;;;;;;5048935;28;20238;-44
2023/06/05 02:44:55;;;;;;;1.30;1.20;;;23.70;50.10;;;;;;5055574;28;20421;-43
2023/06/05 02:47:29;;;;;;;2.67;1.40;;;23.70;50.10;;;;;;5066933;28;20194;-44
2023/06/05 02:50:03;;;;;;;1.20;1.10;;;23.70;50.10;;;;;;5052563;28;20642;-44
2023/06/05 02:52:40;;;;;;;1.37;1.20;;;23.70;50.10;;;;;;5057379;28;20194;-44
2023/06/05 02:55:23;;;;;;;1.53;1.10;;;23.60;50.10;;;;;;5043531;28;20185;-44
2023/06/05 02:57:59;;;;;;;1.53;1.33;;;23.60;50.10;;;;;;5066587;28;20225;-44
2023/06/05 03:00:31;;;;;;;1.20;1.10;;;23.60;50.20;;;;;;5060689;28;20197;-44
2023/06/05 03:03:01;;;;;;;1.60;1.33;;;23.60;50.20;;;;;;5054875;28;20218;-45
2023/06/05 03:05:34;;;;;;;1.90;1.50;;;23.60;50.20;;;;;;5061045;28;20193;-44
2023/06/05 03:08:10;;;;;;;1.10;1.00;;;23.60;50.10;;;;;;5071834;28;20229;-44
2023/06/05 03:10:42;;;;;;;1.40;1.30;;;23.60;50.20;;;;;;5068525;28;20282;-44
2023/06/05 03:13:12;;;;;;;1.30;1.20;;;23.60;50.20;;;;;;5070393;28;20201;-44
2023/06/05 03:15:42;;;;;;;1.83;1.20;;;23.50;50.10;;;;;;5069690;28;20201;-44
2023/06/05 03:18:11;;;;;;;1.40;1.30;;;23.50;50.10;;;;;;5064434;28;20198;-44
2023/06/05 03:20:39;;;;;;;1.73;1.30;;;23.50;50.10;;;;;;5070955;28;20273;-44
2023/06/05 03:23:11;;;;;;;1.30;1.20;;;23.50;50.20;;;;;;5073716;28;20205;-44
2023/06/05 03:26:02;;;;;;;1.37;1.27;;;23.50;50.20;;;;;;5064315;28;20205;-45
2023/06/05 03:28:33;;;;;;;1.53;1.33;;;23.50;50.10;;;;;;5066409;28;20295;-44
2023/06/05 03:31:05;;;;;;;2.37;1.30;;;23.50;50.20;;;;;;5039734;28;20200;-44
2023/06/05 03:33:37;;;;;;;2.27;1.27;;;23.50;50.20;;;;;;5067740;28;20299;-45
2023/06/05 03:36:09;;;;;;;1.27;1.17;;;23.50;50.20;;;;;;5070290;28;20194;-44
2023/06/05 03:38:39;;;;;;;1.30;1.13;;;23.40;50.20;;;;;;5049182;28;20201;-44
2023/06/05 03:41:11;;;;;;;1.57;1.20;;;23.50;50.20;;;;;;5070100;28;20642;-44
2023/06/05 03:43:41;;;;;;;1.87;1.20;;;23.40;50.40;;;;;;5053622;28;20209;-44
2023/06/05 03:46:18;;;;;;;1.50;1.40;;;23.40;50.20;;;;;;5071568;28;20205;-44
2023/06/05 03:49:05;;;;;;;1.37;1.27;;;23.40;50.30;;;;;;5069051;28;20198;-44
2023/06/05 03:51:35;;;;;;;1.43;1.33;;;23.40;50.10;;;;;;5069988;28;20243;-44
2023/06/05 03:54:08;;;;;;;2.50;1.30;;;23.40;50.10;;;;;;5049920;28;20605;-44
2023/06/05 03:56:43;;;;;;;1.93;1.00;;;23.40;50.20;;;;;;5060576;28;20273;-43
2023/06/05 03:59:19;;;;;;;2.53;1.10;;;23.40;50.20;;;;;;5065919;28;20186;-43
2023/06/05 04:01:51;;;;;;;1.43;1.30;;;23.40;50.20;;;;;;5067003;28;20220;-44
2023/06/05 04:04:25;;;;;;;2.23;1.30;;;23.40;50.20;;;;;;5064427;28;20285;-45
2023/06/05 04:06:55;;;;;;;1.23;1.13;;;23.40;50.10;;;;;;5072221;28;20520;-43
2023/06/05 04:09:24;;;;;;;1.30;1.20;;;23.40;50.20;;;;;;5069532;28;20221;-43
2023/06/05 04:11:54;;;;;;;1.50;1.20;;;23.40;50.10;;;;;;5062254;28;20556;-44
2023/06/05 04:14:26;;;;;;;1.20;1.00;;;23.40;50.10;;;;;;5064182;28;20502;-44
2023/06/05 04:16:57;;;;;;;1.50;1.40;;;23.40;50.10;;;;;;5051871;28;20628;-45
2023/06/05 04:19:25;;;;;;;1.43;1.33;;;23.40;50.10;;;;;;5069226;28;20198;-45
2023/06/05 04:21:53;;;;;;;1.27;1.07;;;23.40;50.10;;;;;;5058565;28;20221;-44
2023/06/05 04:24:25;;;;;;;1.27;1.17;;;23.40;50.10;;;;;;5059074;28;20229;-44
2023/06/05 04:26:55;;;;;;;1.30;1.20;;;23.40;50.10;;;;;;5057730;28;20202;-43
2023/06/05 04:29:26;;;;;;;1.70;1.30;;;23.40;50.10;;;;;;5067089;28;20186;-43
2023/06/05 04:31:58;;;;;;;1.60;1.50;;;23.40;50.10;;;;;;5054438;28;20567;-44
2023/06/05 04:34:31;;;;;;;1.40;1.30;;;23.40;50.70;;;;;;5054235;28;20623;-43
2023/06/05 04:37:03;;;;;;;1.60;1.30;;;23.30;50.10;;;;;;5067063;28;20206;-44
2023/06/05 04:39:34;;;;;;;1.67;1.20;;;23.30;50.00;;;;;;5077970;28;20276;-43
2023/06/05 04:42:07;;;;;;;1.70;1.60;;;23.30;50.10;;;;;;5074638;28;20264;-44
2023/06/05 04:44:47;;;;;;;1.33;1.23;;;23.30;50.10;;;;;;5070711;28;20213;-44
2023/06/05 04:47:17;;;;;;;1.90;1.40;;;23.30;50.10;;;;;;5076399;28;20190;-44
2023/06/05 04:49:51;;;;;;;1.20;1.13;;;23.30;50.20;;;;;;5076086;28;20197;-44
2023/06/05 04:52:20;;;;;;;1.50;1.40;;;23.20;50.10;;;;;;5056786;28;20245;-45
2023/06/05 04:54:50;;;;;;;1.90;1.30;;;23.30;50.10;;;;;;5088120;28;20632;-45
2023/06/05 04:57:27;;;;;;;1.40;1.30;;;23.30;50.10;;;;;;5037282;28;20217;-46
2023/06/05 05:00:11;;;;;;;1.50;1.40;;;23.30;50.10;;;;;;5070030;28;20205;-43
2023/06/05 05:02:44;;;;;;;1.57;1.47;;;23.20;50.00;;;;;;5070488;28;20193;-44
2023/06/05 05:05:16;;;;;;;1.40;1.30;;;23.20;50.10;;;;;;5067644;28;20206;-44
2023/06/05 05:07:47;;;;;;;1.57;1.47;;;23.20;50.10;;;;;;5056572;28;20195;-44
2023/06/05 05:10:18;;;;;;;2.30;1.30;;;23.20;50.00;;;;;;5062469;28;20214;-44
2023/06/05 05:12:48;;;;;;;1.23;1.13;;;23.20;50.00;;;;;;5066245;28;20182;-45
2023/06/05 05:15:17;;;;;;;1.83;1.70;;;23.20;50.10;;;;;;5063034;28;20206;-44
2023/06/05 05:17:49;;;;;;;1.40;1.30;;;23.20;50.10;;;;;;5059441;28;20278;-44
2023/06/05 05:20:19;;;;;;;1.53;1.33;;;23.20;50.10;;;;;;5067823;28;20201;-43
2023/06/05 05:22:53;;;;;;;1.70;1.40;;;23.20;50.00;;;;;;5050030;28;20218;-43
2023/06/05 05:25:25;;;;;;;2.07;1.37;;;23.20;50.10;;;;;;5059092;28;20221;-43
2023/06/05 05:27:55;;;;;;;1.80;1.50;;;23.20;50.10;;;;;;5059525;28;20213;-44
2023/06/05 05:30:25;;;;;;;1.87;1.60;;;23.20;50.20;;;;;;5063012;28;20198;-44
2023/06/05 05:32:56;;;;;;;1.73;1.50;;;23.20;50.20;;;;;;5056475;28;20201;-43
2023/06/05 05:35:31;;;;;;;3.03;1.40;;;23.20;50.20;;;;;;5072278;28;20332;-44
2023/06/05 05:38:03;;;;;;;2.87;1.80;;;23.20;50.30;;;;;;5068697;28;20661;-44
2023/06/05 05:40:32;;;;;;;1.97;1.70;;;23.20;50.30;;;;;;5064481;28;20201;-43
2023/06/05 05:43:08;;;;;;;4.43;1.80;;;23.20;50.30;;;;;;5068527;28;20259;-44
2023/06/05 05:45:39;;;;;;;4.70;1.70;;;23.20;50.20;;;;;;5059917;28;20310;-44
2023/06/05 05:48:08;;;;;;;3.13;1.60;;;23.20;50.20;;;;;;5076523;28;20278;-44
2023/06/05 05:50:40;;;;;;;3.40;1.43;;;23.20;50.20;;;;;;5067665;28;20204;-44
2023/06/05 05:53:10;;;;;;;3.13;1.80;;;23.20;50.20;;;;;;5040405;28;20205;-43
2023/06/05 05:55:42;;;;;;;5.60;1.70;;;23.20;50.20;;;;;;5074790;28;20233;-44
2023/06/05 05:58:13;;;;;;;7.27;2.83;;;23.20;50.10;;;;;;5056204;28;20194;-47
2023/06/05 06:00:45;;;;;;;11.43;4.27;;;23.20;50.60;;;;;;5056549;28;20660;-45
2023/06/05 06:03:16;;;;;;;8.93;4.13;;;23.20;51.20;;;;;;5058055;28;20307;-44
2023/06/05 06:05:47;;;;;;;12.23;4.33;;;23.20;51.50;;;;;;5057090;28;20207;-44
2023/06/05 06:08:22;;;;;;;11.30;4.93;;;23.20;51.50;;;;;;5063558;28;20282;-44
2023/06/05 06:10:56;;;;;;;10.67;4.30;;;23.20;51.30;;;;;;5032510;28;20892;-45
2023/06/05 06:13:28;;;;;;;13.23;4.57;;;23.20;51.10;;;;;;5072655;28;20202;-44
2023/06/05 06:15:58;;;;;;;9.03;4.27;;;23.20;51.00;;;;;;5066335;28;20232;-44
2023/06/05 06:18:28;;;;;;;9.23;4.20;;;23.20;51.00;;;;;;5057671;28;20202;-44
2023/06/05 06:21:04;;;;;;;7.70;4.00;;;23.20;50.90;;;;;;5049220;28;20570;-44
2023/06/05 06:23:35;;;;;;;6.53;3.80;;;23.20;50.90;;;;;;5057082;28;20198;-44
2023/06/05 06:26:08;;;;;;;6.03;3.57;;;23.20;50.80;;;;;;5050537;28;20824;-43
2023/06/05 06:28:38;;;;;;;8.97;3.57;;;23.20;50.80;;;;;;5055071;28;20665;-44
2023/06/05 06:31:10;;;;;;;6.10;3.47;;;23.20;50.70;;;;;;5060697;28;20205;-43
2023/06/05 06:33:39;;;;;;;6.67;3.40;;;23.20;50.60;;;;;;5048339;28;20289;-44
2023/06/05 06:36:08;;;;;;;7.00;3.67;;;23.20;50.70;;;;;;5049433;28;20214;-45
2023/06/05 06:38:40;;;;;;;8.67;3.63;;;23.20;50.80;;;;;;5047266;28;20230;-45
2023/06/05 06:41:08;;;;;;;7.33;3.30;;;23.20;50.90;;;;;;5057238;28;20752;-44
2023/06/05 06:43:39;;;;;;;6.43;3.17;;;23.20;50.80;;;;;;5044504;28;20662;-44
2023/06/05 06:46:11;;;;;;;7.27;3.20;;;23.20;50.80;;;;;;5055752;28;20242;-44
2023/06/05 06:48:44;;;;;;;7.93;3.57;;;23.20;50.90;;;;;;5063606;28;20547;-45
2023/06/05 06:51:13;;;;;;;5.03;3.03;;;23.20;50.80;;;;;;5060565;28;20197;-44
2023/06/05 06:53:43;;;;;;;5.30;3.10;;;23.20;50.70;;;;;;5065204;28;20194;-43
2023/06/05 06:56:18;;;;;;;6.37;3.30;;;23.20;50.60;;;;;;5018024;28;20193;-44
2023/06/05 06:58:49;;;;;;;5.53;3.10;;;23.20;50.60;;;;;;5049816;28;20260;-44
2023/06/05 07:01:21;;;;;;;4.23;3.10;;;23.20;50.70;;;;;;5067883;28;20189;-44
2023/06/05 07:03:52;;;;;;;6.07;2.77;;;23.20;50.70;;;;;;5033457;28;20187;-44
2023/06/05 07:06:22;;;;;;;6.83;2.90;;;23.20;50.60;;;;;;5064970;28;20202;-44
2023/06/05 07:08:51;;;;;;;4.20;2.47;;;23.20;50.50;;;;;;5056904;28;20210;-44
2023/06/05 07:11:23;;;;;;;4.50;2.63;;;23.20;50.60;;;;;;5044946;28;20523;-44
2023/06/05 07:13:54;;;;;;;4.27;2.63;;;23.30;50.60;;;;;;5042275;28;20234;-45
2023/06/05 07:16:23;;;;;;;5.97;2.47;;;23.20;50.50;;;;;;5057197;28;20212;-45
2023/06/05 07:18:55;;;;;;;5.43;2.90;;;23.30;50.50;;;;;;5063122;28;20190;-43
2023/06/05 07:21:29;;;;;;;5.67;2.33;;;23.30;50.50;;;;;;5056213;28;20210;-45
2023/06/05 07:24:00;;;;;;;3.47;2.47;;;23.30;50.50;;;;;;5053983;28;20225;-45
2023/06/05 07:26:33;;;;;;;2.97;2.30;;;23.30;50.40;;;;;;5043690;28;20217;-44
2023/06/05 07:29:03;;;;;;;3.57;2.50;;;23.30;50.40;;;;;;5040971;28;20209;-44
2023/06/05 07:31:35;;;;;;;4.33;2.50;;;23.30;50.40;;;;;;5047749;28;20199;-45
2023/06/05 07:34:06;;;;;;;4.50;2.73;;;23.30;50.30;;;;;;5053217;28;20218;-45
2023/06/05 07:36:36;;;;;;;3.87;2.40;;;23.30;50.30;;;;;;5058102;28;20672;-44
2023/06/05 07:39:11;;;;;;;3.80;2.57;;;23.30;50.30;;;;;;5062198;28;20197;-45
2023/06/05 07:41:42;;;;;;;3.70;2.47;;;23.30;50.30;;;;;;5054552;28;20237;-45
2023/06/05 07:44:15;;;;;;;4.00;2.37;;;23.30;50.30;;;;;;5039634;28;20194;-45
2023/06/05 07:46:49;;;;;;;2.87;2.17;;;23.30;50.30;;;;;;5011386;28;20213;-44
2023/06/05 07:49:23;;;;;;;4.03;2.40;;;23.30;50.30;;;;;;5033009;28;20206;-44
2023/06/05 07:51:57;;;;;;;3.30;2.33;;;23.30;50.20;;;;;;5033096;28;20183;-43
2023/06/05 07:54:31;;;;;;;4.20;2.90;;;23.30;50.20;;;;;;5049076;28;20214;-44
2023/06/05 07:57:04;;;;;;;3.97;2.53;;;23.30;50.30;;;;;;5008249;28;20245;-44
2023/06/05 07:59:35;;;;;;;4.27;2.73;;;23.30;50.20;;;;;;5051100;28;20264;-44
2023/06/05 08:02:07;;;;;;;7.30;3.50;;;23.30;50.20;;;;;;5036120;28;20210;-44
2023/06/05 08:04:44;;;;;;;14.07;4.13;;;23.40;50.40;;;;;;5050928;28;20205;-44
2023/06/05 08:07:17;;;;;;;22.53;3.70;;;23.30;50.40;;;;;;5052825;28;20193;-44
2023/06/05 08:09:47;;;;;;;11.10;4.00;;;23.40;50.60;;;;;;5028041;28;20206;-44
2023/06/05 08:12:18;;;;;;;12.20;4.30;;;23.40;50.70;;;;;;5045882;28;20221;-44
2023/06/05 08:14:49;;;;;;;14.30;3.60;;;23.40;50.80;;;;;;5044893;28;20206;-44
2023/06/05 08:17:20;;;;;;;8.70;3.10;;;23.50;50.90;;;;;;5043221;28;20198;-44
2023/06/05 08:19:54;;;;;;;10.63;3.30;;;23.40;51.20;;;;;;5037969;28;20640;-45
2023/06/05 08:22:28;;;;;;;10.83;3.10;;;23.50;51.50;;;;;;5046534;28;20202;-44
2023/06/05 08:24:59;;;;;;;7.50;3.10;;;23.50;51.90;;;;;;5041908;28;20215;-43
2023/06/05 08:27:28;;;;;;;6.53;3.23;;;23.60;52.20;;;;;;5039127;28;20238;-44
2023/06/05 08:29:59;;;;;;;8.13;2.70;;;23.60;52.50;;;;;;5044923;28;20213;-43
2023/06/05 08:32:38;;;;;;;10.43;3.27;;;23.60;52.90;;;;;;5044928;28;20503;-44
2023/06/05 08:35:10;;;;;;;7.27;3.17;;;23.70;53.00;;;;;;5032755;28;20214;-44
2023/06/05 08:37:53;;;;;;;9.60;3.00;;;23.70;53.50;;;;;;5041420;28;20198;-43
2023/06/05 08:40:28;;;;;;;6.07;3.00;;;23.80;53.80;;;;;;5048994;28;20769;-44
2023/06/05 08:42:56;;;;;;;5.07;2.87;;;23.80;54.10;;;;;;5019244;28;20236;-44
2023/06/05 08:45:26;;;;;;;8.50;3.07;;;23.80;54.40;;;;;;5017874;28;20239;-45
2023/06/05 08:47:56;;;;;;;8.70;2.73;;;23.80;54.60;;;;;;5045672;28;20240;-44
2023/06/05 08:50:25;;;;;;;6.60;3.30;;;23.90;55.00;;;;;;5041954;28;20203;-44
2023/06/05 08:53:01;;;;;;;6.30;3.47;;;23.90;55.20;;;;;;5049767;28;20595;-44
2023/06/05 08:55:40;;;;;;;8.40;3.63;;;24.00;55.10;;;;;;5040929;28;20206;-43
2023/06/05 08:58:12;;;;;;;10.20;3.63;;;24.00;55.40;;;;;;5039658;28;20245;-44
2023/06/05 09:00:48;;;;;;;13.33;4.27;;;24.00;55.10;;;;;;5039155;28;20218;-46
2023/06/05 09:03:20;;;;;;;12.90;4.77;;;24.00;55.20;;;;;;5036749;28;20240;-45
2023/06/05 09:05:54;;;;;;;15.27;4.63;;;24.10;55.30;;;;;;5042633;28;20304;-44
2023/06/05 09:08:33;;;;;;;12.60;5.10;;;24.10;55.50;;;;;;5043684;28;20200;-44
2023/06/05 09:11:20;;;;;;;13.37;5.03;;;24.20;55.40;;;;;;5016975;28;20296;-46
2023/06/05 09:13:52;;;;;;;16.97;6.50;;;24.20;55.20;;;;;;5051541;28;20194;-45
2023/06/05 09:16:37;;;;;;;20.13;5.83;;;24.20;55.40;;;;;;5044405;28;20193;-45
2023/06/05 09:19:07;;;;;;;15.07;5.90;;;24.20;55.20;;;;;;5050945;28;20225;-45
2023/06/05 09:21:37;;;;;;;17.90;6.90;;;24.30;55.10;;;;;;5027921;28;20251;-44
2023/06/05 09:24:14;;;;;;;17.60;6.73;;;24.30;54.90;;;;;;5045553;28;20225;-43
2023/06/05 09:27:08;;;;;;;17.93;6.80;;;24.30;54.70;;;;;;5046282;28;20259;-44
2023/06/05 09:29:40;;;;;;;18.67;7.13;;;24.40;54.40;;;;;;5031791;28;20837;-44
2023/06/05 09:32:23;;;;;;;13.93;6.10;;;24.40;54.10;;;;;;5029069;28;20632;-44
2023/06/05 09:35:25;;;;;;;12.23;6.37;;;24.40;53.80;;;;;;5033913;28;20665;-45
2023/06/05 09:37:55;;;;;;;16.23;5.73;;;24.40;53.60;;;;;;5047952;28;20213;-44
2023/06/05 09:40:47;;;;;;;13.87;6.17;;;24.40;53.80;;;;;;5042434;28;20203;-44
2023/06/05 09:43:20;;;;;;;11.73;6.10;;;24.50;53.80;;;;;;5042270;28;20656;-44
2023/06/05 09:45:52;;;;;;;14.37;5.50;;;24.50;53.60;;;;;;5048030;28;20216;-43
2023/06/05 09:48:20;;;;;;;12.10;5.57;;;24.50;53.60;;;;;;5044002;28;20198;-44
2023/06/05 09:50:48;;;;;;;15.30;5.73;;;24.60;53.20;;;;;;5058493;28;20255;-44
2023/06/05 09:53:21;;;;;;;10.43;5.67;;;24.50;53.20;;;;;;5046918;28;20683;-44
2023/06/05 09:55:54;;;;;;;11.10;4.87;;;24.60;53.30;;;;;;5052338;28;20193;-44
2023/06/05 09:58:21;;;;;;;12.53;5.03;;;24.70;53.30;;;;;;5042607;28;20398;-44
2023/06/05 10:00:52;;;;;;;11.87;4.90;;;24.70;53.30;;;;;;5034388;28;20257;-45
2023/06/05 10:03:22;;;;;;;13.60;5.27;;;24.70;53.20;;;;;;5025856;28;20206;-44
2023/06/05 10:05:53;;;;;;;12.33;5.53;;;24.70;53.10;;;;;;5040215;28;20219;-45
2023/06/05 10:08:33;;;;;;;12.77;5.40;;;24.70;53.10;;;;;;5021653;28;20668;-44
2023/06/05 10:11:07;;;;;;;9.13;5.40;;;24.70;53.10;;;;;;5034519;28;20218;-44
2023/06/05 10:13:38;;;;;;;10.27;4.70;;;24.80;52.90;;;;;;5040910;28;20641;-44
2023/06/05 10:16:08;;;;;;;14.90;5.50;;;24.80;52.90;;;;;;5045097;28;20198;-46
2023/06/05 10:19:06;;;;;;;14.53;5.47;;;24.80;53.30;;;;;;5043226;28;20222;-45
2023/06/05 10:21:36;;;;;;;13.10;5.33;;;24.80;53.30;;;;;;5039030;28;20206;-45
2023/06/05 10:24:11;;;;;;;16.17;5.73;;;24.70;53.50;;;;;;5044169;28;20205;-45
2023/06/05 10:27:06;;;;;;;23.63;6.50;;;24.80;54.30;;;;;;5044231;28;20250;-43
2023/06/05 10:29:57;;;;;;;14.60;6.40;;;24.80;54.10;;;;;;5041609;28;20202;-44
2023/06/05 10:33:04;;;;;;;20.10;5.70;;;24.80;56.00;;;;;;5037508;28;20199;-43
2023/06/05 10:36:06;;;;;;;17.10;5.23;;;24.80;54.50;;;;;;5047091;28;20187;-43
2023/06/05 10:38:39;;;;;;;19.57;5.30;;;24.70;54.30;;;;;;5047851;28;20206;-44
2023/06/05 10:41:11;;;;;;;13.57;5.70;;;24.70;54.50;;;;;;5023285;28;20215;-44
2023/06/05 10:43:55;;;;;;;13.37;4.70;;;24.70;54.40;;;;;;5060715;28;20193;-45
2023/06/05 10:46:40;;;;;;;10.83;4.80;;;24.70;54.20;;;;;;5064231;28;20712;-45
2023/06/05 10:49:17;;;;;;;14.37;4.93;;;24.70;54.40;;;;;;5061015;28;20285;-45
2023/06/05 10:51:49;;;;;;;10.63;4.60;;;24.70;54.40;;;;;;5066143;28;20182;-44
2023/06/05 10:54:26;;;;;;;11.70;4.80;;;24.70;54.50;;;;;;5042557;28;20208;-43
2023/06/05 10:57:06;;;;;;;11.00;5.03;;;24.80;54.60;;;;;;5066932;28;20197;-44
2023/06/05 10:59:39;;;;;;;7.97;4.23;;;24.70;54.50;;;;;;5030281;28;20197;-44
2023/06/05 11:02:16;;;;;;;12.03;4.30;;;24.70;54.60;;;;;;5067033;28;20214;-44
2023/06/05 11:04:52;;;;;;;12.40;4.33;;;24.80;54.70;;;;;;5066883;28;20244;-44
2023/06/05 11:07:30;;;;;;;10.30;3.97;;;24.80;54.70;;;;;;5065421;28;20194;-44
2023/06/05 11:10:21;;;;;;;9.27;3.93;;;24.80;54.60;;;;;;5060321;28;20702;-45
2023/06/05 11:12:55;;;;;;;6.30;3.77;;;24.70;54.80;;;;;;5062023;28;20218;-44
2023/06/05 11:15:38;;;;;;;6.53;4.00;;;24.70;54.70;;;;;;5041974;28;20202;-45
2023/06/05 11:18:32;;;;;;;8.50;3.80;;;24.80;54.80;;;;;;5032848;28;20639;-44
2023/06/05 11:21:04;;;;;;;5.73;3.93;;;24.80;54.90;;;;;;5046758;28;20201;-44
2023/06/05 11:23:36;;;;;;;8.57;3.90;;;24.70;54.90;;;;;;5061387;28;20207;-44
2023/06/05 11:26:40;;;;;;;7.17;4.07;;;24.80;55.10;;;;;;5061285;28;20229;-44
2023/06/05 11:29:16;;;;;;;7.17;3.70;;;24.80;54.30;;;;;;5054453;28;20210;-44
2023/06/05 11:31:46;;;;;;;7.57;4.00;;;24.80;54.30;;;;;;5045885;28;20193;-44
2023/06/05 11:34:18;;;;;;;5.10;3.43;;;24.80;54.10;;;;;;5060154;28;20637;-45
2023/06/05 11:36:51;;;;;;;6.37;3.40;;;24.80;54.70;;;;;;5060874;28;20666;-45
2023/06/05 11:39:29;;;;;;;3.47;2.97;;;24.80;54.40;;;;;;5038180;28;20252;-44
2023/06/05 11:41:58;;;;;;;4.23;3.37;;;24.80;54.60;;;;;;5074175;28;20244;-44
2023/06/05 11:44:35;;;;;;;5.53;3.70;;;24.80;54.60;;;;;;5054285;28;20201;-44
2023/06/05 11:47:08;;;;;;;3.40;2.70;;;24.90;54.80;;;;;;5056942;28;20248;-44
2023/06/05 11:49:39;;;;;;;5.40;3.37;;;24.90;54.80;;;;;;5053142;28;20222;-44
2023/06/05 11:52:23;;;;;;;6.23;3.00;;;24.80;54.20;;;;;;5057510;28;20216;-43
2023/06/05 11:55:05;;;;;;;3.73;2.90;;;24.90;54.90;;;;;;5055077;28;20194;-44
2023/06/05 11:57:49;;;;;;;3.20;2.60;;;24.90;54.30;;;;;;5056297;28;20190;-44
2023/06/05 12:00:29;;;;;;;4.33;2.90;;;24.90;54.80;;;;;;5045563;28;20213;-44
2023/06/05 12:02:59;;;;;;;3.77;2.90;;;24.90;54.50;;;;;;5054640;28;20264;-44
2023/06/05 12:05:30;;;;;;;5.67;3.07;;;25.00;54.30;;;;;;5060664;28;20236;-44
2023/06/05 12:08:24;;;;;;;5.90;2.87;;;25.00;54.60;;;;;;5067037;28;20238;-43
2023/06/05 12:10:53;;;;;;;4.80;2.80;;;25.00;54.30;;;;;;5045821;28;20237;-44
2023/06/05 12:13:22;;;;;;;5.03;2.27;;;25.00;54.30;;;;;;5050460;28;20221;-45
2023/06/05 12:16:01;;;;;;;3.20;2.70;;;25.00;54.20;;;;;;5065937;28;20202;-44
2023/06/05 12:18:34;;;;;;;4.27;2.90;;;25.00;54.30;;;;;;5061592;28;20220;-43
2023/06/05 12:21:06;;;;;;;3.57;2.50;;;25.00;54.50;;;;;;5046963;28;20634;-45
2023/06/05 12:23:38;;;;;;;3.53;2.70;;;25.00;54.20;;;;;;5065004;28;20197;-45
2023/06/05 12:26:11;;;;;;;6.33;2.67;;;25.00;54.10;;;;;;5069116;28;20239;-44
2023/06/05 12:28:44;;;;;;;3.23;2.50;;;25.00;54.10;;;;;;5060597;28;20186;-44
2023/06/05 12:31:39;;;;;;;4.27;2.63;;;25.10;54.30;;;;;;5063584;28;20225;-44
2023/06/05 12:34:12;;;;;;;3.10;2.43;;;25.10;54.00;;;;;;5066796;28;20248;-43
2023/06/05 12:36:42;;;;;;;4.23;2.80;;;25.10;54.10;;;;;;5033230;28;20198;-45
2023/06/05 12:39:18;;;;;;;4.17;2.47;;;25.10;53.80;;;;;;5054282;28;20232;-44
2023/06/05 12:41:49;;;;;;;3.77;2.70;;;25.10;53.50;;;;;;5039469;28;20233;-45
2023/06/05 12:44:18;;;;;;;3.50;2.70;;;25.10;53.30;;;;;;5038395;28;20190;-45
2023/06/05 12:46:51;;;;;;;2.73;2.30;;;25.20;53.40;;;;;;5052675;28;20217;-44
2023/06/05 12:49:20;;;;;;;3.53;2.50;;;25.20;53.60;;;;;;5044920;28;20860;-44
2023/06/05 12:51:52;;;;;;;4.00;2.27;;;25.20;53.70;;;;;;5042123;28;20198;-44
2023/06/05 12:54:24;;;;;;;3.33;2.20;;;25.20;53.40;;;;;;5046782;28;20198;-44
2023/06/05 12:56:55;;;;;;;3.03;2.30;;;25.20;53.00;;;;;;5042895;28;20233;-45
2023/06/05 12:59:28;;;;;;;4.17;2.33;;;25.20;53.20;;;;;;5033177;28;20198;-44
2023/06/05 13:02:02;;;;;;;2.60;2.40;;;25.20;53.30;;;;;;5050191;28;20235;-44
2023/06/05 13:04:33;;;;;;;2.37;2.03;;;25.20;53.00;;;;;;5023950;28;20218;-45
2023/06/05 13:07:05;;;;;;;2.97;2.10;;;25.20;52.90;;;;;;5043243;28;20214;-44
2023/06/05 13:09:41;;;;;;;3.33;2.40;;;25.30;53.60;;;;;;5046835;28;20198;-44
2023/06/05 13:12:12;;;;;;;3.00;2.47;;;25.30;53.00;;;;;;5042642;28;20644;-44
2023/06/05 13:14:41;;;;;;;2.80;2.53;;;25.30;53.10;;;;;;5042389;28;20212;-44
2023/06/05 13:17:10;;;;;;;4.13;2.20;;;25.30;52.70;;;;;;5054020;28;20213;-44
2023/06/05 13:19:44;;;;;;;2.97;1.70;;;25.30;52.30;;;;;;5049767;28;20198;-44